sensor_id;sensor_type;location;lat;lon;timestamp;temperature;humidity
9486;DHT22;4781;48.776;9.200;2022-11-18T00:01:30;8.10;99.90
9486;DHT22;4781;48.776;9.200;2022-11-18T00:03:59;8.10;99.90
9486;DHT22;4781;48.776;9.200;2022-11-18T00:06:28;8.10;99.90
9486;DHT22;4781;48.776;9.200;2022-11-18T00:08:58;8.10;99.90
9486;DHT22;4781;48.776;9.200;2022-11-18T00:11:26;8.10;99.90
9486;DHT22;4781;48.776;9.200;2022-11-18T00:14:19;8.10;99.90
9486;DHT22;4781;48.776;9.200;2022-11-18T00:17:01;8.00;99.90
9486;DHT22;4781;48.776;9.200;2022-11-18T00:19:38;8.00;99.90
9486;DHT22;4781;48.776;9.200;2022-11-18T00:21:59;8.00;99.90
9486;DHT22;4781;48.776;9.200;2022-11-18T00:24:27;8.00;99.90
9486;DHT22;4781;48.776;9.200;2022-11-18T00:26:56;8.10;99.90
9486;DHT22;4781;48.776;9.200;2022-11-18T00:29:25;8.00;99.90
9486;DHT22;4781;48.776;9.200;2022-11-18T00:31:54;8.00;99.90
9486;DHT22;4781;48.776;9.200;2022-11-18T00:34:24;8.00;99.90
9486;DHT22;4781;48.776;9.200;2022-11-18T00:36:52;8.10;99.90
9486;DHT22;4781;48.776;9.200;2022-11-18T00:39:21;8.10;99.90
9486;DHT22;4781;48.776;9.200;2022-11-18T00:41:49;8.10;99.90
9486;DHT22;4781;48.776;9.200;2022-11-18T00:44:35;8.10;99.90
9486;DHT22;4781;48.776;9.200;2022-11-18T00:47:04;8.10;99.90
9486;DHT22;4781;48.776;9.200;2022-11-18T00:49:32;8.10;99.90
9486;DHT22;4781;48.776;9.200;2022-11-18T00:52:00;8.10;99.90
9486;DHT22;4781;48.776;9.200;2022-11-18T00:54:29;8.10;99.90
9486;DHT22;4781;48.776;9.200;2022-11-18T00:56:57;8.10;99.90
9486;DHT22;4781;48.776;9.200;2022-11-18T00:59:26;8.10;99.90
9486;DHT22;4781;48.776;9.200;2022-11-18T01:01:54;8.10;99.90
9486;DHT22;4781;48.776;9.200;2022-11-18T01:04:22;8.10;99.90
9486;DHT22;4781;48.776;9.200;2022-11-18T01:06:51;8.10;99.90
9486;DHT22;4781;48.776;9.200;2022-11-18T01:09:19;8.10;99.90
9486;DHT22;4781;48.776;9.200;2022-11-18T01:11:48;8.10;99.90
9486;DHT22;4781;48.776;9.200;2022-11-18T01:14:34;8.10;99.90
9486;DHT22;4781;48.776;9.200;2022-11-18T01:17:02;8.10;99.90
9486;DHT22;4781;48.776;9.200;2022-11-18T01:19:31;8.10;99.90
9486;DHT22;4781;48.776;9.200;2022-11-18T01:21:59;8.10;99.90
9486;DHT22;4781;48.776;9.200;2022-11-18T01:24:29;8.00;99.90
9486;DHT22;4781;48.776;9.200;2022-11-18T01:27:00;8.10;99.90
9486;DHT22;4781;48.776;9.200;2022-11-18T01:29:28;8.00;99.90
9486;DHT22;4781;48.776;9.200;2022-11-18T01:31:57;8.10;99.90
9486;DHT22;4781;48.776;9.200;2022-11-18T01:34:27;8.10;99.90
9486;DHT22;4781;48.776;9.200;2022-11-18T01:36:56;8.00;99.90
9486;DHT22;4781;48.776;9.200;2022-11-18T01:39:25;8.10;99.90
9486;DHT22;4781;48.776;9.200;2022-11-18T01:41:53;8.10;99.90
9486;DHT22;4781;48.776;9.200;2022-11-18T01:44:55;8.00;99.90
9486;DHT22;4781;48.776;9.200;2022-11-18T01:47:21;8.00;99.90
9486;DHT22;4781;48.776;9.200;2022-11-18T01:49:50;8.00;99.90
9486;DHT22;4781;48.776;9.200;2022-11-18T01:52:18;8.00;99.90
9486;DHT22;4781;48.776;9.200;2022-11-18T01:54:50;8.00;99.90
9486;DHT22;4781;48.776;9.200;2022-11-18T01:57:21;8.00;99.90
9486;DHT22;4781;48.776;9.200;2022-11-18T01:59:54;8.00;99.90
9486;DHT22;4781;48.776;9.200;2022-11-18T02:02:25;8.10;99.90
9486;DHT22;4781;48.776;9.200;2022-11-18T02:04:55;8.10;99.90
9486;DHT22;4781;48.776;9.200;2022-11-18T02:07:25;8.10;99.90
9486;DHT22;4781;48.776;9.200;2022-11-18T02:09:55;8.10;99.90
9486;DHT22;4781;48.776;9.200;2022-11-18T02:12:25;8.10;99.90
9486;DHT22;4781;48.776;9.200;2022-11-18T02:14:53;8.10;99.90
9486;DHT22;4781;48.776;9.200;2022-11-18T02:26:48;8.00;99.90
9486;DHT22;4781;48.776;9.200;2022-11-18T02:29:29;8.00;99.90
9486;DHT22;4781;48.776;9.200;2022-11-18T02:32:24;8.00;99.90
9486;DHT22;4781;48.776;9.200;2022-11-18T02:34:59;8.10;99.90
9486;DHT22;4781;48.776;9.200;2022-11-18T02:37:36;8.00;99.90
9486;DHT22;4781;48.776;9.200;2022-11-18T02:43:07;8.00;99.90
9486;DHT22;4781;48.776;9.200;2022-11-18T02:45:32;8.00;99.90
9486;DHT22;4781;48.776;9.200;2022-11-18T02:48:05;8.00;99.90
9486;DHT22;4781;48.776;9.200;2022-11-18T02:50:34;8.00;99.90
9486;DHT22;4781;48.776;9.200;2022-11-18T02:53:05;7.90;99.90
9486;DHT22;4781;48.776;9.200;2022-11-18T02:55:35;7.90;99.90
9486;DHT22;4781;48.776;9.200;2022-11-18T02:58:05;7.90;99.90
9486;DHT22;4781;48.776;9.200;2022-11-18T03:00:35;7.90;99.90
9486;DHT22;4781;48.776;9.200;2022-11-18T03:03:29;7.90;99.90
9486;DHT22;4781;48.776;9.200;2022-11-18T03:06:30;7.90;99.90
9486;DHT22;4781;48.776;9.200;2022-11-18T03:17:57;7.90;99.90
9486;DHT22;4781;48.776;9.200;2022-11-18T03:20:34;7.90;99.90
9486;DHT22;4781;48.776;9.200;2022-11-18T03:23:10;7.90;99.90
9486;DHT22;4781;48.776;9.200;2022-11-18T03:31:24;7.90;99.90
9486;DHT22;4781;48.776;9.200;2022-11-18T03:34:10;7.90;99.90
9486;DHT22;4781;48.776;9.200;2022-11-18T03:36:46;7.90;99.90
9486;DHT22;4781;48.776;9.200;2022-11-18T03:39:18;7.90;99.90
9486;DHT22;4781;48.776;9.200;2022-11-18T03:41:52;7.90;99.90
9486;DHT22;4781;48.776;9.200;2022-11-18T03:44:25;7.90;99.90
9486;DHT22;4781;48.776;9.200;2022-11-18T03:46:58;8.00;99.90
9486;DHT22;4781;48.776;9.200;2022-11-18T03:49:32;7.90;99.90
9486;DHT22;4781;48.776;9.200;2022-11-18T03:52:15;7.90;99.90
9486;DHT22;4781;48.776;9.200;2022-11-18T03:54:46;7.90;99.90
9486;DHT22;4781;48.776;9.200;2022-11-18T03:57:23;7.90;99.90
9486;DHT22;4781;48.776;9.200;2022-11-18T03:59:58;7.90;99.90
9486;DHT22;4781;48.776;9.200;2022-11-18T04:02:29;7.90;99.90
9486;DHT22;4781;48.776;9.200;2022-11-18T04:04:59;7.90;99.90
9486;DHT22;4781;48.776;9.200;2022-11-18T04:07:51;7.90;99.90
9486;DHT22;4781;48.776;9.200;2022-11-18T04:10:43;7.90;99.90
9486;DHT22;4781;48.776;9.200;2022-11-18T04:13:18;7.90;99.90
9486;DHT22;4781;48.776;9.200;2022-11-18T04:15:48;7.90;99.90
9486;DHT22;4781;48.776;9.200;2022-11-18T04:18:17;7.90;99.90
9486;DHT22;4781;48.776;9.200;2022-11-18T04:20:45;7.80;99.90
9486;DHT22;4781;48.776;9.200;2022-11-18T04:23:14;7.80;99.90
9486;DHT22;4781;48.776;9.200;2022-11-18T04:25:42;7.80;99.90
9486;DHT22;4781;48.776;9.200;2022-11-18T04:28:11;7.90;99.90
9486;DHT22;4781;48.776;9.200;2022-11-18T04:30:39;7.90;99.90
9486;DHT22;4781;48.776;9.200;2022-11-18T04:33:07;7.90;99.90
9486;DHT22;4781;48.776;9.200;2022-11-18T04:35:36;7.80;99.90
9486;DHT22;4781;48.776;9.200;2022-11-18T04:38:04;7.90;99.90
9486;DHT22;4781;48.776;9.200;2022-11-18T04:40:32;7.80;99.90
9486;DHT22;4781;48.776;9.200;2022-11-18T04:43:01;7.70;99.90
9486;DHT22;4781;48.776;9.200;2022-11-18T04:45:29;7.70;99.90
9486;DHT22;4781;48.776;9.200;2022-11-18T04:47:58;7.70;99.90
9486;DHT22;4781;48.776;9.200;2022-11-18T04:50:26;7.60;99.90
9486;DHT22;4781;48.776;9.200;2022-11-18T04:52:54;7.60;99.90
9486;DHT22;4781;48.776;9.200;2022-11-18T04:55:23;7.50;99.90
9486;DHT22;4781;48.776;9.200;2022-11-18T04:57:52;7.60;99.90
9486;DHT22;4781;48.776;9.200;2022-11-18T05:00:21;7.60;99.90
9486;DHT22;4781;48.776;9.200;2022-11-18T05:02:49;7.60;99.90
9486;DHT22;4781;48.776;9.200;2022-11-18T05:05:18;7.60;99.90
9486;DHT22;4781;48.776;9.200;2022-11-18T05:07:46;7.60;99.90
9486;DHT22;4781;48.776;9.200;2022-11-18T05:10:15;7.50;99.90
9486;DHT22;4781;48.776;9.200;2022-11-18T05:12:43;7.50;99.90
9486;DHT22;4781;48.776;9.200;2022-11-18T05:15:17;7.50;99.90
9486;DHT22;4781;48.776;9.200;2022-11-18T05:17:47;7.50;99.90
9486;DHT22;4781;48.776;9.200;2022-11-18T05:20:16;7.50;99.90
9486;DHT22;4781;48.776;9.200;2022-11-18T05:22:44;7.50;99.90
9486;DHT22;4781;48.776;9.200;2022-11-18T05:25:13;7.40;99.90
9486;DHT22;4781;48.776;9.200;2022-11-18T05:27:41;7.40;99.90
9486;DHT22;4781;48.776;9.200;2022-11-18T05:30:10;7.30;99.90
9486;DHT22;4781;48.776;9.200;2022-11-18T05:32:39;7.30;99.90
9486;DHT22;4781;48.776;9.200;2022-11-18T05:35:08;7.30;99.90
9486;DHT22;4781;48.776;9.200;2022-11-18T05:37:36;7.30;99.90
9486;DHT22;4781;48.776;9.200;2022-11-18T05:40:05;7.30;99.90
9486;DHT22;4781;48.776;9.200;2022-11-18T05:42:34;7.30;99.90
9486;DHT22;4781;48.776;9.200;2022-11-18T05:45:20;7.30;99.90
9486;DHT22;4781;48.776;9.200;2022-11-18T05:47:49;7.30;99.90
9486;DHT22;4781;48.776;9.200;2022-11-18T05:50:26;7.20;99.90
9486;DHT22;4781;48.776;9.200;2022-11-18T05:52:54;7.20;99.90
9486;DHT22;4781;48.776;9.200;2022-11-18T05:55:26;7.20;99.90
9486;DHT22;4781;48.776;9.200;2022-11-18T05:57:56;7.20;99.90
9486;DHT22;4781;48.776;9.200;2022-11-18T06:00:24;7.10;99.90
9486;DHT22;4781;48.776;9.200;2022-11-18T06:02:53;7.10;99.90
9486;DHT22;4781;48.776;9.200;2022-11-18T06:05:23;7.10;99.90
9486;DHT22;4781;48.776;9.200;2022-11-18T06:07:54;7.10;99.90
9486;DHT22;4781;48.776;9.200;2022-11-18T06:10:28;7.20;99.90
9486;DHT22;4781;48.776;9.200;2022-11-18T06:12:59;7.10;99.90
9486;DHT22;4781;48.776;9.200;2022-11-18T06:15:35;7.10;99.90
9486;DHT22;4781;48.776;9.200;2022-11-18T06:18:16;7.10;99.90
9486;DHT22;4781;48.776;9.200;2022-11-18T06:20:46;7.10;99.90
9486;DHT22;4781;48.776;9.200;2022-11-18T06:23:14;7.10;99.90
9486;DHT22;4781;48.776;9.200;2022-11-18T06:25:43;7.10;99.90
9486;DHT22;4781;48.776;9.200;2022-11-18T06:28:14;7.10;99.90
9486;DHT22;4781;48.776;9.200;2022-11-18T06:30:42;7.10;99.90
9486;DHT22;4781;48.776;9.200;2022-11-18T06:33:11;7.10;99.90
9486;DHT22;4781;48.776;9.200;2022-11-18T06:35:41;7.10;99.90
9486;DHT22;4781;48.776;9.200;2022-11-18T06:38:10;7.10;99.90
9486;DHT22;4781;48.776;9.200;2022-11-18T06:40:38;7.10;99.90
9486;DHT22;4781;48.776;9.200;2022-11-18T06:43:09;7.10;99.90
9486;DHT22;4781;48.776;9.200;2022-11-18T06:46:00;7.10;99.90
9486;DHT22;4781;48.776;9.200;2022-11-18T06:48:47;7.10;99.90
9486;DHT22;4781;48.776;9.200;2022-11-18T06:51:16;7.10;99.90
9486;DHT22;4781;48.776;9.200;2022-11-18T06:53:44;7.00;99.90
9486;DHT22;4781;48.776;9.200;2022-11-18T06:56:14;7.10;99.90
9486;DHT22;4781;48.776;9.200;2022-11-18T06:58:44;7.00;99.90
9486;DHT22;4781;48.776;9.200;2022-11-18T07:01:20;7.10;99.90
9486;DHT22;4781;48.776;9.200;2022-11-18T07:03:50;7.10;99.90
9486;DHT22;4781;48.776;9.200;2022-11-18T07:06:21;7.10;99.90
9486;DHT22;4781;48.776;9.200;2022-11-18T07:08:52;7.10;99.90
9486;DHT22;4781;48.776;9.200;2022-11-18T07:11:23;7.10;99.90
9486;DHT22;4781;48.776;9.200;2022-11-18T07:13:52;7.10;99.90
9486;DHT22;4781;48.776;9.200;2022-11-18T07:16:23;7.10;99.90
9486;DHT22;4781;48.776;9.200;2022-11-18T07:18:53;7.10;99.90
9486;DHT22;4781;48.776;9.200;2022-11-18T07:21:23;7.20;99.90
9486;DHT22;4781;48.776;9.200;2022-11-18T07:23:54;7.20;99.90
9486;DHT22;4781;48.776;9.200;2022-11-18T07:26:23;7.20;99.90
9486;DHT22;4781;48.776;9.200;2022-11-18T07:28:53;7.10;99.90
9486;DHT22;4781;48.776;9.200;2022-11-18T07:31:21;7.10;99.90
9486;DHT22;4781;48.776;9.200;2022-11-18T07:33:50;7.20;99.90
9486;DHT22;4781;48.776;9.200;2022-11-18T07:36:22;7.20;99.90
9486;DHT22;4781;48.776;9.200;2022-11-18T07:38:52;7.20;99.90
9486;DHT22;4781;48.776;9.200;2022-11-18T07:41:25;7.20;99.90
9486;DHT22;4781;48.776;9.200;2022-11-18T07:43:56;7.20;99.90
9486;DHT22;4781;48.776;9.200;2022-11-18T07:46:30;7.30;99.90
9486;DHT22;4781;48.776;9.200;2022-11-18T07:49:02;7.30;99.90
9486;DHT22;4781;48.776;9.200;2022-11-18T07:51:34;7.30;99.90
9486;DHT22;4781;48.776;9.200;2022-11-18T07:54:09;7.30;99.90
9486;DHT22;4781;48.776;9.200;2022-11-18T07:56:38;7.30;99.90
9486;DHT22;4781;48.776;9.200;2022-11-18T07:59:07;7.30;99.90
9486;DHT22;4781;48.776;9.200;2022-11-18T08:01:35;7.30;99.90
9486;DHT22;4781;48.776;9.200;2022-11-18T08:04:06;7.30;99.90
9486;DHT22;4781;48.776;9.200;2022-11-18T08:06:38;7.40;99.90
9486;DHT22;4781;48.776;9.200;2022-11-18T08:09:07;7.40;99.90
9486;DHT22;4781;48.776;9.200;2022-11-18T08:11:36;7.40;99.90
9486;DHT22;4781;48.776;9.200;2022-11-18T08:14:06;7.40;99.90
9486;DHT22;4781;48.776;9.200;2022-11-18T08:16:34;7.50;99.90
9486;DHT22;4781;48.776;9.200;2022-11-18T08:19:03;7.40;99.90
9486;DHT22;4781;48.776;9.200;2022-11-18T08:21:31;7.40;99.90
9486;DHT22;4781;48.776;9.200;2022-11-18T08:23:59;7.50;99.90
9486;DHT22;4781;48.776;9.200;2022-11-18T08:26:28;7.50;99.90
9486;DHT22;4781;48.776;9.200;2022-11-18T08:28:56;7.50;99.90
9486;DHT22;4781;48.776;9.200;2022-11-18T08:31:26;7.50;99.90
9486;DHT22;4781;48.776;9.200;2022-11-18T08:33:56;7.50;99.90
9486;DHT22;4781;48.776;9.200;2022-11-18T08:36:31;7.50;99.90
9486;DHT22;4781;48.776;9.200;2022-11-18T08:39:03;7.50;99.90
9486;DHT22;4781;48.776;9.200;2022-11-18T08:41:38;7.60;99.90
9486;DHT22;4781;48.776;9.200;2022-11-18T08:44:10;7.50;99.90
9486;DHT22;4781;48.776;9.200;2022-11-18T08:46:42;7.50;99.90
9486;DHT22;4781;48.776;9.200;2022-11-18T08:49:14;7.50;99.90
9486;DHT22;4781;48.776;9.200;2022-11-18T08:51:42;7.60;99.90
9486;DHT22;4781;48.776;9.200;2022-11-18T08:54:11;7.60;99.90
9486;DHT22;4781;48.776;9.200;2022-11-18T08:56:39;7.60;99.90
9486;DHT22;4781;48.776;9.200;2022-11-18T08:59:08;7.60;99.90
9486;DHT22;4781;48.776;9.200;2022-11-18T09:01:37;7.60;99.90
9486;DHT22;4781;48.776;9.200;2022-11-18T09:04:07;7.70;99.90
9486;DHT22;4781;48.776;9.200;2022-11-18T09:06:36;7.70;99.90
9486;DHT22;4781;48.776;9.200;2022-11-18T09:09:06;7.70;99.90
9486;DHT22;4781;48.776;9.200;2022-11-18T09:11:37;7.80;99.90
9486;DHT22;4781;48.776;9.200;2022-11-18T09:14:06;7.80;99.90
9486;DHT22;4781;48.776;9.200;2022-11-18T09:16:36;7.70;99.90
9486;DHT22;4781;48.776;9.200;2022-11-18T09:19:05;7.80;99.90
9486;DHT22;4781;48.776;9.200;2022-11-18T09:21:33;7.80;99.90
9486;DHT22;4781;48.776;9.200;2022-11-18T09:24:03;7.80;99.90
9486;DHT22;4781;48.776;9.200;2022-11-18T09:26:31;7.90;99.90
9486;DHT22;4781;48.776;9.200;2022-11-18T09:29:00;7.90;99.90
9486;DHT22;4781;48.776;9.200;2022-11-18T09:31:28;7.90;99.90
9486;DHT22;4781;48.776;9.200;2022-11-18T09:33:58;7.80;99.90
9486;DHT22;4781;48.776;9.200;2022-11-18T09:36:27;7.90;99.90
9486;DHT22;4781;48.776;9.200;2022-11-18T09:38:58;7.90;99.90
9486;DHT22;4781;48.776;9.200;2022-11-18T09:41:47;7.90;99.90
9486;DHT22;4781;48.776;9.200;2022-11-18T09:44:38;7.90;99.90
9486;DHT22;4781;48.776;9.200;2022-11-18T09:47:25;8.00;99.90
9486;DHT22;4781;48.776;9.200;2022-11-18T09:50:13;7.90;99.90
9486;DHT22;4781;48.776;9.200;2022-11-18T09:55:38;8.00;99.90
9486;DHT22;4781;48.776;9.200;2022-11-18T09:58:10;8.00;99.90
9486;DHT22;4781;48.776;9.200;2022-11-18T10:00:40;8.00;99.90
9486;DHT22;4781;48.776;9.200;2022-11-18T10:03:31;8.00;99.90
9486;DHT22;4781;48.776;9.200;2022-11-18T10:05:58;8.00;99.90
9486;DHT22;4781;48.776;9.200;2022-11-18T10:08:48;8.10;99.90
9486;DHT22;4781;48.776;9.200;2022-11-18T10:11:18;8.00;99.90
9486;DHT22;4781;48.776;9.200;2022-11-18T10:13:58;8.10;99.90
9486;DHT22;4781;48.776;9.200;2022-11-18T10:20:21;8.20;99.90
9486;DHT22;4781;48.776;9.200;2022-11-18T10:23:17;8.20;99.90
9486;DHT22;4781;48.776;9.200;2022-11-18T10:25:53;8.30;99.90
9486;DHT22;4781;48.776;9.200;2022-11-18T10:28:24;8.20;99.90
9486;DHT22;4781;48.776;9.200;2022-11-18T10:31:09;8.30;99.90
9486;DHT22;4781;48.776;9.200;2022-11-18T10:33:38;8.30;99.90
9486;DHT22;4781;48.776;9.200;2022-11-18T10:36:18;8.40;99.90
9486;DHT22;4781;48.776;9.200;2022-11-18T10:39:17;8.40;99.90
9486;DHT22;4781;48.776;9.200;2022-11-18T10:41:48;8.30;99.90
9486;DHT22;4781;48.776;9.200;2022-11-18T10:44:35;8.40;99.90
9486;DHT22;4781;48.776;9.200;2022-11-18T10:47:24;8.50;99.90
9486;DHT22;4781;48.776;9.200;2022-11-18T10:49:59;8.60;99.90
9486;DHT22;4781;48.776;9.200;2022-11-18T10:52:29;8.70;99.90
9486;DHT22;4781;48.776;9.200;2022-11-18T10:55:17;8.70;99.90
9486;DHT22;4781;48.776;9.200;2022-11-18T10:57:40;8.80;99.90
9486;DHT22;4781;48.776;9.200;2022-11-18T11:00:33;8.80;99.90
9486;DHT22;4781;48.776;9.200;2022-11-18T11:03:01;8.80;99.90
9486;DHT22;4781;48.776;9.200;2022-11-18T11:05:52;8.80;99.90
9486;DHT22;4781;48.776;9.200;2022-11-18T11:08:45;8.70;99.90
9486;DHT22;4781;48.776;9.200;2022-11-18T11:14:14;8.80;99.90
9486;DHT22;4781;48.776;9.200;2022-11-18T11:17:07;8.80;99.90
9486;DHT22;4781;48.776;9.200;2022-11-18T11:19:49;8.80;99.90
9486;DHT22;4781;48.776;9.200;2022-11-18T11:22:28;8.80;99.90
9486;DHT22;4781;48.776;9.200;2022-11-18T11:24:56;8.70;99.90
9486;DHT22;4781;48.776;9.200;2022-11-18T11:27:42;8.70;99.90
9486;DHT22;4781;48.776;9.200;2022-11-18T11:30:23;8.60;99.90
9486;DHT22;4781;48.776;9.200;2022-11-18T11:36:04;8.70;99.90
9486;DHT22;4781;48.776;9.200;2022-11-18T11:45:00;8.70;99.90
9486;DHT22;4781;48.776;9.200;2022-11-18T11:53:29;8.90;99.90
9486;DHT22;4781;48.776;9.200;2022-11-18T12:04:55;8.80;99.90
9486;DHT22;4781;48.776;9.200;2022-11-18T12:07:30;8.80;99.90
9486;DHT22;4781;48.776;9.200;2022-11-18T12:10:07;8.90;99.90
9486;DHT22;4781;48.776;9.200;2022-11-18T12:19:06;8.90;99.90
9486;DHT22;4781;48.776;9.200;2022-11-18T12:21:53;8.90;99.90
9486;DHT22;4781;48.776;9.200;2022-11-18T12:24:41;8.90;99.90
9486;DHT22;4781;48.776;9.200;2022-11-18T12:27:12;8.90;99.90
9486;DHT22;4781;48.776;9.200;2022-11-18T12:32:30;8.80;99.90
9486;DHT22;4781;48.776;9.200;2022-11-18T12:40:42;8.60;99.90
9486;DHT22;4781;48.776;9.200;2022-11-18T12:51:57;8.40;99.90
9486;DHT22;4781;48.776;9.200;2022-11-18T12:54:37;8.40;99.90
9486;DHT22;4781;48.776;9.200;2022-11-18T12:57:20;8.40;99.90
9486;DHT22;4781;48.776;9.200;2022-11-18T12:59:49;8.40;99.90
9486;DHT22;4781;48.776;9.200;2022-11-18T13:05:07;8.40;99.90
9486;DHT22;4781;48.776;9.200;2022-11-18T13:07:49;8.40;99.90
9486;DHT22;4781;48.776;9.200;2022-11-18T13:10:39;8.40;99.90
9486;DHT22;4781;48.776;9.200;2022-11-18T13:13:34;8.50;99.90
9486;DHT22;4781;48.776;9.200;2022-11-18T13:16:05;8.60;99.90
9486;DHT22;4781;48.776;9.200;2022-11-18T13:19:05;8.60;99.90
9486;DHT22;4781;48.776;9.200;2022-11-18T13:21:34;8.70;99.90
9486;DHT22;4781;48.776;9.200;2022-11-18T13:24:22;8.70;99.90
9486;DHT22;4781;48.776;9.200;2022-11-18T13:26:55;8.80;99.90
9486;DHT22;4781;48.776;9.200;2022-11-18T13:29:44;8.80;99.90
9486;DHT22;4781;48.776;9.200;2022-11-18T13:32:25;9.00;99.90
9486;DHT22;4781;48.776;9.200;2022-11-18T13:34:57;9.00;99.90
9486;DHT22;4781;48.776;9.200;2022-11-18T13:37:29;9.00;99.90
9486;DHT22;4781;48.776;9.200;2022-11-18T13:40:01;9.00;99.90
9486;DHT22;4781;48.776;9.200;2022-11-18T13:42:30;8.90;99.90
9486;DHT22;4781;48.776;9.200;2022-11-18T13:45:00;8.90;99.90
9486;DHT22;4781;48.776;9.200;2022-11-18T13:47:35;9.00;99.90
9486;DHT22;4781;48.776;9.200;2022-11-18T13:50:14;9.00;99.90
9486;DHT22;4781;48.776;9.200;2022-11-18T13:56:23;9.10;99.90
9486;DHT22;4781;48.776;9.200;2022-11-18T13:58:55;9.00;99.90
9486;DHT22;4781;48.776;9.200;2022-11-18T14:01:33;9.00;99.90
9486;DHT22;4781;48.776;9.200;2022-11-18T14:04:00;9.00;99.90
9486;DHT22;4781;48.776;9.200;2022-11-18T14:06:36;9.10;99.90
9486;DHT22;4781;48.776;9.200;2022-11-18T14:09:24;9.10;99.90
9486;DHT22;4781;48.776;9.200;2022-11-18T14:14:37;9.00;99.90
9486;DHT22;4781;48.776;9.200;2022-11-18T14:17:26;9.00;99.90
9486;DHT22;4781;48.776;9.200;2022-11-18T14:19:57;9.00;99.90
9486;DHT22;4781;48.776;9.200;2022-11-18T14:22:29;9.00;99.90
9486;DHT22;4781;48.776;9.200;2022-11-18T14:25:00;8.90;99.90
9486;DHT22;4781;48.776;9.200;2022-11-18T14:27:42;8.90;99.90
9486;DHT22;4781;48.776;9.200;2022-11-18T14:33:22;8.90;99.90
9486;DHT22;4781;48.776;9.200;2022-11-18T14:36:02;8.80;99.90
9486;DHT22;4781;48.776;9.200;2022-11-18T14:38:39;8.80;99.90
9486;DHT22;4781;48.776;9.200;2022-11-18T14:41:18;8.80;99.90
9486;DHT22;4781;48.776;9.200;2022-11-18T14:44:05;8.80;99.90
9486;DHT22;4781;48.776;9.200;2022-11-18T14:46:36;8.80;99.90
9486;DHT22;4781;48.776;9.200;2022-11-18T14:49:09;8.80;99.90
9486;DHT22;4781;48.776;9.200;2022-11-18T14:51:47;8.70;99.90
9486;DHT22;4781;48.776;9.200;2022-11-18T14:54:19;8.70;99.90
9486;DHT22;4781;48.776;9.200;2022-11-18T14:56:49;8.70;99.90
9486;DHT22;4781;48.776;9.200;2022-11-18T14:59:19;8.70;99.90
9486;DHT22;4781;48.776;9.200;2022-11-18T15:01:48;8.60;99.90
9486;DHT22;4781;48.776;9.200;2022-11-18T15:04:16;8.60;99.90
9486;DHT22;4781;48.776;9.200;2022-11-18T15:06:46;8.60;99.90
9486;DHT22;4781;48.776;9.200;2022-11-18T15:09:14;8.60;99.90
9486;DHT22;4781;48.776;9.200;2022-11-18T15:11:42;8.50;99.90
9486;DHT22;4781;48.776;9.200;2022-11-18T15:14:11;8.50;99.90
9486;DHT22;4781;48.776;9.200;2022-11-18T15:16:39;8.50;99.90
9486;DHT22;4781;48.776;9.200;2022-11-18T15:19:11;8.50;99.90
9486;DHT22;4781;48.776;9.200;2022-11-18T15:21:40;8.50;99.90
9486;DHT22;4781;48.776;9.200;2022-11-18T15:24:10;8.50;99.90
9486;DHT22;4781;48.776;9.200;2022-11-18T15:26:41;8.50;99.90
9486;DHT22;4781;48.776;9.200;2022-11-18T15:29:23;8.50;99.90
9486;DHT22;4781;48.776;9.200;2022-11-18T15:31:46;8.50;99.90
9486;DHT22;4781;48.776;9.200;2022-11-18T15:34:16;8.50;99.90
9486;DHT22;4781;48.776;9.200;2022-11-18T15:36:45;8.50;99.90
9486;DHT22;4781;48.776;9.200;2022-11-18T15:39:13;8.50;99.90
9486;DHT22;4781;48.776;9.200;2022-11-18T15:41:42;8.40;99.90
9486;DHT22;4781;48.776;9.200;2022-11-18T15:44:10;8.50;99.90
9486;DHT22;4781;48.776;9.200;2022-11-18T15:46:40;8.50;99.90
9486;DHT22;4781;48.776;9.200;2022-11-18T15:49:13;8.50;99.90
9486;DHT22;4781;48.776;9.200;2022-11-18T15:51:43;8.40;99.90
9486;DHT22;4781;48.776;9.200;2022-11-18T15:54:11;8.40;99.90
9486;DHT22;4781;48.776;9.200;2022-11-18T15:56:40;8.40;99.90
9486;DHT22;4781;48.776;9.200;2022-11-18T15:59:10;8.40;99.90
9486;DHT22;4781;48.776;9.200;2022-11-18T16:01:44;8.40;99.90
9486;DHT22;4781;48.776;9.200;2022-11-18T16:04:16;8.40;99.90
9486;DHT22;4781;48.776;9.200;2022-11-18T16:06:45;8.40;99.90
9486;DHT22;4781;48.776;9.200;2022-11-18T16:09:15;8.30;99.90
9486;DHT22;4781;48.776;9.200;2022-11-18T16:11:43;8.40;99.90
9486;DHT22;4781;48.776;9.200;2022-11-18T16:14:29;8.30;99.90
9486;DHT22;4781;48.776;9.200;2022-11-18T16:16:57;8.30;99.90
9486;DHT22;4781;48.776;9.200;2022-11-18T16:19:26;8.30;99.90
9486;DHT22;4781;48.776;9.200;2022-11-18T16:21:56;8.30;99.90
9486;DHT22;4781;48.776;9.200;2022-11-18T16:24:26;8.30;99.90
9486;DHT22;4781;48.776;9.200;2022-11-18T16:26:56;8.30;99.90
9486;DHT22;4781;48.776;9.200;2022-11-18T16:29:24;8.30;99.90
9486;DHT22;4781;48.776;9.200;2022-11-18T16:31:52;8.30;99.90
9486;DHT22;4781;48.776;9.200;2022-11-18T16:34:26;8.30;99.90
9486;DHT22;4781;48.776;9.200;2022-11-18T16:36:56;8.20;99.90
9486;DHT22;4781;48.776;9.200;2022-11-18T16:39:27;8.20;99.90
9486;DHT22;4781;48.776;9.200;2022-11-18T16:41:58;8.20;99.90
9486;DHT22;4781;48.776;9.200;2022-11-18T16:44:27;8.20;99.90
9486;DHT22;4781;48.776;9.200;2022-11-18T16:46:56;8.30;99.90
9486;DHT22;4781;48.776;9.200;2022-11-18T16:49:26;8.20;99.90
9486;DHT22;4781;48.776;9.200;2022-11-18T16:51:55;8.20;99.90
9486;DHT22;4781;48.776;9.200;2022-11-18T16:54:25;8.20;99.90
9486;DHT22;4781;48.776;9.200;2022-11-18T16:56:56;8.20;99.90
9486;DHT22;4781;48.776;9.200;2022-11-18T16:59:27;8.20;99.90
9486;DHT22;4781;48.776;9.200;2022-11-18T17:01:57;8.20;99.90
9486;DHT22;4781;48.776;9.200;2022-11-18T17:04:28;8.10;99.90
9486;DHT22;4781;48.776;9.200;2022-11-18T17:06:56;8.10;99.90
9486;DHT22;4781;48.776;9.200;2022-11-18T17:09:28;8.10;99.90
9486;DHT22;4781;48.776;9.200;2022-11-18T17:11:57;8.10;99.90
9486;DHT22;4781;48.776;9.200;2022-11-18T17:14:25;8.10;99.90
9486;DHT22;4781;48.776;9.200;2022-11-18T17:16:56;8.10;99.90
9486;DHT22;4781;48.776;9.200;2022-11-18T17:19:24;8.10;99.90
9486;DHT22;4781;48.776;9.200;2022-11-18T17:21:52;8.10;99.90
9486;DHT22;4781;48.776;9.200;2022-11-18T17:24:22;8.10;99.90
9486;DHT22;4781;48.776;9.200;2022-11-18T17:26:52;8.10;99.90
9486;DHT22;4781;48.776;9.200;2022-11-18T17:29:20;8.00;99.90
9486;DHT22;4781;48.776;9.200;2022-11-18T17:31:49;8.00;99.90
9486;DHT22;4781;48.776;9.200;2022-11-18T17:34:19;8.00;99.90
9486;DHT22;4781;48.776;9.200;2022-11-18T17:36:47;7.90;99.90
9486;DHT22;4781;48.776;9.200;2022-11-18T17:39:15;7.90;99.90
9486;DHT22;4781;48.776;9.200;2022-11-18T17:41:45;7.90;99.90
9486;DHT22;4781;48.776;9.200;2022-11-18T17:44:32;8.00;99.90
9486;DHT22;4781;48.776;9.200;2022-11-18T17:47:00;7.90;99.90
9486;DHT22;4781;48.776;9.200;2022-11-18T17:49:29;8.00;99.90
9486;DHT22;4781;48.776;9.200;2022-11-18T17:51:57;7.90;99.90
9486;DHT22;4781;48.776;9.200;2022-11-18T17:54:25;7.90;99.90
9486;DHT22;4781;48.776;9.200;2022-11-18T17:56:54;7.90;99.90
9486;DHT22;4781;48.776;9.200;2022-11-18T17:59:22;7.90;99.90
9486;DHT22;4781;48.776;9.200;2022-11-18T18:01:51;7.90;99.90
9486;DHT22;4781;48.776;9.200;2022-11-18T18:04:19;7.80;99.90
9486;DHT22;4781;48.776;9.200;2022-11-18T18:06:49;7.90;99.90
9486;DHT22;4781;48.776;9.200;2022-11-18T18:09:18;7.80;99.90
9486;DHT22;4781;48.776;9.200;2022-11-18T18:11:48;7.90;99.90
9486;DHT22;4781;48.776;9.200;2022-11-18T18:14:17;7.80;99.90
9486;DHT22;4781;48.776;9.200;2022-11-18T18:16:47;7.80;99.90
9486;DHT22;4781;48.776;9.200;2022-11-18T18:19:20;7.80;99.90
9486;DHT22;4781;48.776;9.200;2022-11-18T18:21:49;7.80;99.90
9486;DHT22;4781;48.776;9.200;2022-11-18T18:24:18;7.80;99.90
9486;DHT22;4781;48.776;9.200;2022-11-18T18:26:47;7.80;99.90
9486;DHT22;4781;48.776;9.200;2022-11-18T18:29:15;7.70;99.90